This is the latest recevied weather packets stored in our database for station/object KD4KKF. If no packets are shown the sender has not sent any weather packets the latest 1 day(s).
| Time | Temp. | Humidity | Pressure | Rain* | Wind** | Luminosity | Snow |
|---|---|---|---|---|---|---|---|
| 1778013499 | 22.78° C | 70% | 1010.3 hPa | 0 mm | 0.45 m/s, 201° | 140 W/m² | - |
| 1778013196 | 22.78° C | 69% | 1010.5 hPa | 0 mm | 0.45 m/s, 273° | 138 W/m² | - |
| 1778012892 | 23.33° C | 68% | 1010.4 hPa | 0 mm | 1.34 m/s, 109° | 152 W/m² | - |
| 1778012588 | 23.33° C | 69% | 1010.7 hPa | 0 mm | 0.45 m/s, 279° | 132 W/m² | - |
| 1778012285 | 23.33° C | 68% | 1010.7 hPa | 0 mm | 0.89 m/s, 170° | 161 W/m² | - |
| 1778011982 | 23.33° C | 68% | 1010.7 hPa | 0 mm | 0.89 m/s, 231° | 200 W/m² | - |
| 1778011681 | 23.33° C | 68% | 1010.8 hPa | 0 mm | 1.79 m/s, 227° | 232 W/m² | - |
| 1778011377 | 23.33° C | 67% | 1010.8 hPa | 0 mm | 0.89 m/s, 254° | 235 W/m² | - |
| 1778011072 | 23.33° C | 69% | 1011.2 hPa | 0 mm | 0.45 m/s, 113° | 255 W/m² | - |
| 1778010771 | 23.89° C | 66% | 1010.9 hPa | 0 mm | 1.79 m/s, 199° | 282 W/m² | - |
| 1778010467 | 23.89° C | 66% | 1011 hPa | 0 mm | 1.79 m/s, 201° | 322 W/m² | - |
| 1778010164 | 24.44° C | 65% | 1011.2 hPa | 0 mm | 0.45 m/s, 186° | 411 W/m² | - |
| 1778009859 | 23.89° C | 65% | 1011.1 hPa | 0 mm | 1.34 m/s, 165° | 436 W/m² | - |
| 1778009557 | 23.89° C | 64% | 1011.1 hPa | 0 mm | 2.24 m/s, 197° | 380 W/m² | - |
| 1778009256 | 23.89° C | 63% | 1011.1 hPa | 0 mm | 0.89 m/s, 334° | 347 W/m² | - |
| 1778008953 | 24.44° C | 62% | 1011.4 hPa | 0 mm | 1.34 m/s, 227° | 341 W/m² | - |
| 1778008651 | 23.89° C | 62% | 1011.5 hPa | 0 mm | 2.24 m/s, 144° | 393 W/m² | - |
| 1778008349 | 24.44° C | 60% | 1011.5 hPa | 0 mm | 1.79 m/s, 224° | 356 W/m² | - |
| 1778008045 | 23.89° C | 65% | 1011.7 hPa | 0 mm | 0.45 m/s, 200° | 731 W/m² | - |
| 1778007745 | 24.44° C | 62% | 1011.4 hPa | 0 mm | 2.24 m/s, 256° | 375 W/m² | - |
| 1778007442 | 24.44° C | 63% | 1011.7 hPa | 0 mm | 1.34 m/s, 153° | 247 W/m² | - |
| 1778007138 | 24.44° C | 62% | 1011.4 hPa | 0 mm | 1.34 m/s, 185° | 672 W/m² | - |
| 1778006834 | 25° C | 62% | 1011.7 hPa | 0 mm | 0.89 m/s, 146° | 961 W/m² | - |
| 1778006532 | 25° C | 61% | 1011.8 hPa | 0 mm | 0.89 m/s, 114° | 809 W/m² | - |
| 1778006228 | 24.44° C | 61% | 1011.9 hPa | 0 mm | 1.34 m/s, 154° | 664 W/m² | - |
* Rain latest hour (hover to see other rain measurements)
** Current wind speed in m/s (hover to see current wind gust speed)